sensor_id;sensor_type;location;lat;lon;timestamp;P1;durP1;ratioP1;P2;durP2;ratioP2
53961;SDS011;39868;53.398;6.564;2022-11-11T00:00:23;6.45;;;3.72;;
53961;SDS011;39868;53.398;6.564;2022-11-11T00:03:09;9.43;;;4.07;;
53961;SDS011;39868;53.398;6.564;2022-11-11T00:06:03;6.13;;;3.70;;
53961;SDS011;39868;53.398;6.564;2022-11-11T00:08:49;10.63;;;3.85;;
53961;SDS011;39868;53.398;6.564;2022-11-11T00:11:36;6.75;;;4.10;;
53961;SDS011;39868;53.398;6.564;2022-11-11T00:14:22;8.25;;;4.30;;
53961;SDS011;39868;53.398;6.564;2022-11-11T00:17:11;9.32;;;4.13;;
53961;SDS011;39868;53.398;6.564;2022-11-11T00:20:16;9.32;;;4.60;;
53961;SDS011;39868;53.398;6.564;2022-11-11T00:23:27;9.10;;;4.35;;
53961;SDS011;39868;53.398;6.564;2022-11-11T00:26:32;7.57;;;4.82;;
53961;SDS011;39868;53.398;6.564;2022-11-11T00:29:24;8.43;;;4.82;;
53961;SDS011;39868;53.398;6.564;2022-11-11T00:32:10;9.02;;;4.78;;
53961;SDS011;39868;53.398;6.564;2022-11-11T00:35:08;8.98;;;4.55;;
53961;SDS011;39868;53.398;6.564;2022-11-11T00:38:13;10.75;;;4.53;;
53961;SDS011;39868;53.398;6.564;2022-11-11T00:41:21;13.25;;;4.57;;
53961;SDS011;39868;53.398;6.564;2022-11-11T00:44:07;8.13;;;5.10;;
53961;SDS011;39868;53.398;6.564;2022-11-11T00:46:53;10.50;;;4.93;;
53961;SDS011;39868;53.398;6.564;2022-11-11T00:49:58;9.50;;;5.18;;
53961;SDS011;39868;53.398;6.564;2022-11-11T00:53:03;8.07;;;4.75;;
53961;SDS011;39868;53.398;6.564;2022-11-11T00:55:52;9.95;;;5.40;;
53961;SDS011;39868;53.398;6.564;2022-11-11T00:58:39;10.57;;;4.95;;
53961;SDS011;39868;53.398;6.564;2022-11-11T01:01:25;11.38;;;5.32;;
53961;SDS011;39868;53.398;6.564;2022-11-11T01:04:12;6.63;;;4.93;;
53961;SDS011;39868;53.398;6.564;2022-11-11T01:06:58;10.68;;;5.35;;
53961;SDS011;39868;53.398;6.564;2022-11-11T01:09:44;12.63;;;5.00;;
53961;SDS011;39868;53.398;6.564;2022-11-11T01:12:30;8.63;;;5.00;;
53961;SDS011;39868;53.398;6.564;2022-11-11T01:15:16;9.25;;;5.20;;
53961;SDS011;39868;53.398;6.564;2022-11-11T01:18:02;7.88;;;4.85;;
53961;SDS011;39868;53.398;6.564;2022-11-11T01:21:32;11.40;;;4.68;;
53961;SDS011;39868;53.398;6.564;2022-11-11T01:24:01;8.73;;;4.65;;
53961;SDS011;39868;53.398;6.564;2022-11-11T01:26:47;9.20;;;5.05;;
53961;SDS011;39868;53.398;6.564;2022-11-11T01:29:32;6.65;;;4.95;;
53961;SDS011;39868;53.398;6.564;2022-11-11T01:32:19;9.38;;;5.22;;
53961;SDS011;39868;53.398;6.564;2022-11-11T01:35:05;9.07;;;5.18;;
53961;SDS011;39868;53.398;6.564;2022-11-11T01:37:52;10.90;;;4.80;;
53961;SDS011;39868;53.398;6.564;2022-11-11T01:40:39;8.05;;;4.68;;
53961;SDS011;39868;53.398;6.564;2022-11-11T01:43:30;10.57;;;5.03;;
53961;SDS011;39868;53.398;6.564;2022-11-11T01:49:20;8.40;;;4.85;;
53961;SDS011;39868;53.398;6.564;2022-11-11T01:55:12;11.40;;;5.38;;
53961;SDS011;39868;53.398;6.564;2022-11-11T01:58:04;9.27;;;5.20;;
53961;SDS011;39868;53.398;6.564;2022-11-11T02:00:53;9.70;;;4.72;;
53961;SDS011;39868;53.398;6.564;2022-11-11T02:03:40;8.32;;;4.80;;
53961;SDS011;39868;53.398;6.564;2022-11-11T02:06:48;8.73;;;4.97;;
53961;SDS011;39868;53.398;6.564;2022-11-11T02:09:38;7.63;;;5.25;;
53961;SDS011;39868;53.398;6.564;2022-11-11T02:12:29;9.55;;;4.72;;
53961;SDS011;39868;53.398;6.564;2022-11-11T02:15:34;8.38;;;5.20;;
53961;SDS011;39868;53.398;6.564;2022-11-11T02:18:21;9.88;;;5.25;;
53961;SDS011;39868;53.398;6.564;2022-11-11T02:21:09;7.82;;;4.38;;
53961;SDS011;39868;53.398;6.564;2022-11-11T02:24:02;8.68;;;4.75;;
53961;SDS011;39868;53.398;6.564;2022-11-11T02:26:52;8.90;;;4.60;;
53961;SDS011;39868;53.398;6.564;2022-11-11T02:29:43;8.38;;;4.65;;
53961;SDS011;39868;53.398;6.564;2022-11-11T02:32:33;8.25;;;3.88;;
53961;SDS011;39868;53.398;6.564;2022-11-11T02:35:21;6.22;;;3.95;;
53961;SDS011;39868;53.398;6.564;2022-11-11T02:38:14;7.25;;;4.15;;
53961;SDS011;39868;53.398;6.564;2022-11-11T02:41:00;5.05;;;4.05;;
53961;SDS011;39868;53.398;6.564;2022-11-11T02:44:05;7.50;;;4.22;;
53961;SDS011;39868;53.398;6.564;2022-11-11T02:46:51;8.57;;;3.97;;
53961;SDS011;39868;53.398;6.564;2022-11-11T02:49:37;8.30;;;4.63;;
53961;SDS011;39868;53.398;6.564;2022-11-11T02:52:23;7.63;;;4.88;;
53961;SDS011;39868;53.398;6.564;2022-11-11T02:55:10;12.38;;;4.68;;
53961;SDS011;39868;53.398;6.564;2022-11-11T02:57:56;12.43;;;4.80;;
53961;SDS011;39868;53.398;6.564;2022-11-11T03:00:42;7.18;;;4.22;;
53961;SDS011;39868;53.398;6.564;2022-11-11T03:03:28;8.35;;;4.78;;
53961;SDS011;39868;53.398;6.564;2022-11-11T03:06:15;14.23;;;5.18;;
53961;SDS011;39868;53.398;6.564;2022-11-11T03:09:01;9.38;;;4.90;;
53961;SDS011;39868;53.398;6.564;2022-11-11T03:11:47;7.13;;;4.85;;
53961;SDS011;39868;53.398;6.564;2022-11-11T03:14:33;7.82;;;4.90;;
53961;SDS011;39868;53.398;6.564;2022-11-11T03:17:19;7.78;;;5.03;;
53961;SDS011;39868;53.398;6.564;2022-11-11T03:20:24;10.20;;;5.50;;
53961;SDS011;39868;53.398;6.564;2022-11-11T03:23:29;9.50;;;5.40;;
53961;SDS011;39868;53.398;6.564;2022-11-11T03:26:15;9.32;;;5.28;;
53961;SDS011;39868;53.398;6.564;2022-11-11T03:29:01;12.50;;;5.85;;
53961;SDS011;39868;53.398;6.564;2022-11-11T03:31:48;10.60;;;6.07;;
53961;SDS011;39868;53.398;6.564;2022-11-11T03:34:35;8.35;;;5.25;;
53961;SDS011;39868;53.398;6.564;2022-11-11T03:37:21;11.95;;;5.75;;
53961;SDS011;39868;53.398;6.564;2022-11-11T03:40:25;11.20;;;6.25;;
53961;SDS011;39868;53.398;6.564;2022-11-11T03:43:11;14.15;;;6.97;;
53961;SDS011;39868;53.398;6.564;2022-11-11T03:45:59;10.10;;;6.53;;
53961;SDS011;39868;53.398;6.564;2022-11-11T03:48:47;9.55;;;6.53;;
53961;SDS011;39868;53.398;6.564;2022-11-11T03:51:32;10.30;;;7.22;;
53961;SDS011;39868;53.398;6.564;2022-11-11T03:54:19;11.88;;;7.22;;
53961;SDS011;39868;53.398;6.564;2022-11-11T03:57:05;11.10;;;7.28;;
53961;SDS011;39868;53.398;6.564;2022-11-11T04:00:10;12.77;;;7.53;;
53961;SDS011;39868;53.398;6.564;2022-11-11T04:03:03;14.00;;;8.18;;
53961;SDS011;39868;53.398;6.564;2022-11-11T04:06:09;10.13;;;7.18;;
53961;SDS011;39868;53.398;6.564;2022-11-11T04:09:14;11.40;;;7.32;;
53961;SDS011;39868;53.398;6.564;2022-11-11T04:12:19;15.00;;;8.10;;
53961;SDS011;39868;53.398;6.564;2022-11-11T04:15:08;13.25;;;7.25;;
53961;SDS011;39868;53.398;6.564;2022-11-11T04:18:13;11.02;;;7.25;;
53961;SDS011;39868;53.398;6.564;2022-11-11T04:20:59;15.18;;;7.85;;
53961;SDS011;39868;53.398;6.564;2022-11-11T04:24:04;10.60;;;7.43;;
53961;SDS011;39868;53.398;6.564;2022-11-11T04:27:11;13.32;;;8.65;;
53961;SDS011;39868;53.398;6.564;2022-11-11T04:29:58;11.98;;;8.02;;
53961;SDS011;39868;53.398;6.564;2022-11-11T04:32:44;13.02;;;8.15;;
53961;SDS011;39868;53.398;6.564;2022-11-11T04:35:31;16.65;;;8.95;;
53961;SDS011;39868;53.398;6.564;2022-11-11T04:38:17;13.65;;;8.20;;
53961;SDS011;39868;53.398;6.564;2022-11-11T04:41:22;12.18;;;7.75;;
53961;SDS011;39868;53.398;6.564;2022-11-11T04:44:27;14.60;;;8.07;;
53961;SDS011;39868;53.398;6.564;2022-11-11T04:47:32;15.18;;;8.25;;
53961;SDS011;39868;53.398;6.564;2022-11-11T04:50:18;14.90;;;7.85;;
53961;SDS011;39868;53.398;6.564;2022-11-11T04:53:06;14.90;;;8.65;;
53961;SDS011;39868;53.398;6.564;2022-11-11T04:55:59;15.95;;;9.00;;
53961;SDS011;39868;53.398;6.564;2022-11-11T04:59:03;17.08;;;9.60;;
53961;SDS011;39868;53.398;6.564;2022-11-11T05:02:01;16.80;;;8.55;;
53961;SDS011;39868;53.398;6.564;2022-11-11T05:05:13;15.15;;;8.10;;
53961;SDS011;39868;53.398;6.564;2022-11-11T05:07:59;13.50;;;8.25;;
53961;SDS011;39868;53.398;6.564;2022-11-11T05:11:04;15.07;;;8.57;;
53961;SDS011;39868;53.398;6.564;2022-11-11T05:13:51;15.90;;;8.90;;
53961;SDS011;39868;53.398;6.564;2022-11-11T05:16:57;20.00;;;9.30;;
53961;SDS011;39868;53.398;6.564;2022-11-11T05:20:02;14.05;;;8.95;;
53961;SDS011;39868;53.398;6.564;2022-11-11T05:23:09;13.10;;;8.77;;
53961;SDS011;39868;53.398;6.564;2022-11-11T05:25:55;17.08;;;9.13;;
53961;SDS011;39868;53.398;6.564;2022-11-11T05:28:41;13.77;;;9.25;;
53961;SDS011;39868;53.398;6.564;2022-11-11T05:31:27;18.38;;;9.85;;
53961;SDS011;39868;53.398;6.564;2022-11-11T05:34:14;15.50;;;9.35;;
53961;SDS011;39868;53.398;6.564;2022-11-11T05:37:00;12.98;;;9.75;;
53961;SDS011;39868;53.398;6.564;2022-11-11T05:39:46;18.30;;;9.32;;
53961;SDS011;39868;53.398;6.564;2022-11-11T05:42:32;14.10;;;9.43;;
53961;SDS011;39868;53.398;6.564;2022-11-11T05:45:18;16.92;;;10.07;;
53961;SDS011;39868;53.398;6.564;2022-11-11T05:48:04;16.63;;;10.50;;
53961;SDS011;39868;53.398;6.564;2022-11-11T05:50:50;15.10;;;9.82;;
53961;SDS011;39868;53.398;6.564;2022-11-11T05:53:37;20.27;;;10.48;;
53961;SDS011;39868;53.398;6.564;2022-11-11T05:56:22;19.30;;;10.70;;
53961;SDS011;39868;53.398;6.564;2022-11-11T05:59:08;18.52;;;10.50;;
53961;SDS011;39868;53.398;6.564;2022-11-11T06:01:54;21.13;;;10.82;;
53961;SDS011;39868;53.398;6.564;2022-11-11T06:04:41;15.30;;;10.30;;
53961;SDS011;39868;53.398;6.564;2022-11-11T06:07:27;17.88;;;9.95;;
53961;SDS011;39868;53.398;6.564;2022-11-11T06:10:13;17.67;;;10.48;;
53961;SDS011;39868;53.398;6.564;2022-11-11T06:13:14;21.17;;;10.82;;
53961;SDS011;39868;53.398;6.564;2022-11-11T06:16:01;15.88;;;9.98;;
53961;SDS011;39868;53.398;6.564;2022-11-11T06:18:48;16.63;;;9.95;;
53961;SDS011;39868;53.398;6.564;2022-11-11T06:21:34;16.33;;;9.80;;
53961;SDS011;39868;53.398;6.564;2022-11-11T06:24:40;18.63;;;10.38;;
53961;SDS011;39868;53.398;6.564;2022-11-11T06:27:26;21.42;;;10.00;;
53961;SDS011;39868;53.398;6.564;2022-11-11T06:30:12;19.30;;;10.20;;
53961;SDS011;39868;53.398;6.564;2022-11-11T06:33:18;17.58;;;10.05;;
53961;SDS011;39868;53.398;6.564;2022-11-11T06:36:06;15.35;;;9.73;;
53961;SDS011;39868;53.398;6.564;2022-11-11T06:38:53;17.98;;;10.43;;
53961;SDS011;39868;53.398;6.564;2022-11-11T06:41:39;19.10;;;9.85;;
53961;SDS011;39868;53.398;6.564;2022-11-11T06:44:25;16.02;;;10.43;;
53961;SDS011;39868;53.398;6.564;2022-11-11T06:47:11;17.85;;;9.15;;
53961;SDS011;39868;53.398;6.564;2022-11-11T06:49:58;16.38;;;9.77;;
53961;SDS011;39868;53.398;6.564;2022-11-11T06:52:44;17.27;;;9.63;;
53961;SDS011;39868;53.398;6.564;2022-11-11T06:55:31;15.63;;;10.25;;
53961;SDS011;39868;53.398;6.564;2022-11-11T06:58:18;16.38;;;9.70;;
53961;SDS011;39868;53.398;6.564;2022-11-11T07:01:05;12.43;;;9.00;;
53961;SDS011;39868;53.398;6.564;2022-11-11T07:03:53;18.17;;;10.30;;
53961;SDS011;39868;53.398;6.564;2022-11-11T07:06:39;15.10;;;9.20;;
53961;SDS011;39868;53.398;6.564;2022-11-11T07:09:25;18.50;;;9.25;;
53961;SDS011;39868;53.398;6.564;2022-11-11T07:12:12;17.02;;;10.07;;
53961;SDS011;39868;53.398;6.564;2022-11-11T07:14:59;14.93;;;8.77;;
53961;SDS011;39868;53.398;6.564;2022-11-11T07:17:45;16.77;;;9.55;;
53961;SDS011;39868;53.398;6.564;2022-11-11T07:20:31;15.88;;;9.52;;
53961;SDS011;39868;53.398;6.564;2022-11-11T07:23:16;17.42;;;9.75;;
53961;SDS011;39868;53.398;6.564;2022-11-11T07:26:03;15.80;;;9.38;;
53961;SDS011;39868;53.398;6.564;2022-11-11T07:28:49;17.67;;;9.27;;
53961;SDS011;39868;53.398;6.564;2022-11-11T07:31:35;15.98;;;9.15;;
53961;SDS011;39868;53.398;6.564;2022-11-11T07:34:22;18.33;;;9.70;;
53961;SDS011;39868;53.398;6.564;2022-11-11T07:37:08;15.40;;;9.13;;
53961;SDS011;39868;53.398;6.564;2022-11-11T07:39:54;20.40;;;9.55;;
53961;SDS011;39868;53.398;6.564;2022-11-11T07:42:40;15.27;;;9.25;;
53961;SDS011;39868;53.398;6.564;2022-11-11T07:45:27;16.27;;;9.55;;
53961;SDS011;39868;53.398;6.564;2022-11-11T07:48:13;20.20;;;10.27;;
53961;SDS011;39868;53.398;6.564;2022-11-11T07:50:59;19.40;;;10.68;;
53961;SDS011;39868;53.398;6.564;2022-11-11T07:53:45;19.33;;;11.13;;
53961;SDS011;39868;53.398;6.564;2022-11-11T07:56:31;16.50;;;9.57;;
53961;SDS011;39868;53.398;6.564;2022-11-11T07:59:17;20.13;;;10.60;;
53961;SDS011;39868;53.398;6.564;2022-11-11T08:02:03;16.20;;;9.18;;
53961;SDS011;39868;53.398;6.564;2022-11-11T08:04:49;18.27;;;10.70;;
53961;SDS011;39868;53.398;6.564;2022-11-11T08:07:40;15.35;;;9.70;;
53961;SDS011;39868;53.398;6.564;2022-11-11T08:10:27;21.63;;;10.70;;
53961;SDS011;39868;53.398;6.564;2022-11-11T08:13:13;20.58;;;10.73;;
53961;SDS011;39868;53.398;6.564;2022-11-11T08:16:17;16.15;;;10.10;;
53961;SDS011;39868;53.398;6.564;2022-11-11T08:19:03;18.52;;;10.85;;
53961;SDS011;39868;53.398;6.564;2022-11-11T08:21:50;18.83;;;11.05;;
53961;SDS011;39868;53.398;6.564;2022-11-11T08:24:36;17.98;;;10.48;;
53961;SDS011;39868;53.398;6.564;2022-11-11T08:27:43;21.55;;;11.20;;
53961;SDS011;39868;53.398;6.564;2022-11-11T08:30:29;16.92;;;11.00;;
53961;SDS011;39868;53.398;6.564;2022-11-11T08:33:15;20.63;;;10.98;;
53961;SDS011;39868;53.398;6.564;2022-11-11T08:36:19;20.38;;;11.43;;
53961;SDS011;39868;53.398;6.564;2022-11-11T08:39:07;19.13;;;10.70;;
53961;SDS011;39868;53.398;6.564;2022-11-11T08:41:53;19.58;;;10.82;;
53961;SDS011;39868;53.398;6.564;2022-11-11T08:44:40;18.27;;;11.15;;
53961;SDS011;39868;53.398;6.564;2022-11-11T08:47:26;19.20;;;10.82;;
53961;SDS011;39868;53.398;6.564;2022-11-11T08:50:12;18.60;;;10.55;;
53961;SDS011;39868;53.398;6.564;2022-11-11T08:52:58;17.55;;;11.10;;
53961;SDS011;39868;53.398;6.564;2022-11-11T08:55:44;18.55;;;10.75;;
53961;SDS011;39868;53.398;6.564;2022-11-11T08:58:31;17.60;;;10.70;;
53961;SDS011;39868;53.398;6.564;2022-11-11T09:01:17;19.23;;;11.45;;
53961;SDS011;39868;53.398;6.564;2022-11-11T09:04:03;17.50;;;9.95;;
53961;SDS011;39868;53.398;6.564;2022-11-11T09:07:09;22.25;;;11.77;;
53961;SDS011;39868;53.398;6.564;2022-11-11T09:09:56;16.02;;;11.10;;
53961;SDS011;39868;53.398;6.564;2022-11-11T09:12:42;20.00;;;11.15;;
53961;SDS011;39868;53.398;6.564;2022-11-11T09:15:29;20.13;;;11.77;;
53961;SDS011;39868;53.398;6.564;2022-11-11T09:18:15;18.30;;;11.25;;
53961;SDS011;39868;53.398;6.564;2022-11-11T09:21:01;23.15;;;12.57;;
53961;SDS011;39868;53.398;6.564;2022-11-11T09:23:47;21.02;;;11.60;;
53961;SDS011;39868;53.398;6.564;2022-11-11T09:26:33;20.73;;;10.60;;
53961;SDS011;39868;53.398;6.564;2022-11-11T09:29:19;23.08;;;12.10;;
53961;SDS011;39868;53.398;6.564;2022-11-11T09:32:05;23.05;;;12.25;;
53961;SDS011;39868;53.398;6.564;2022-11-11T09:34:51;17.25;;;11.10;;
53961;SDS011;39868;53.398;6.564;2022-11-11T09:37:39;22.05;;;11.80;;
53961;SDS011;39868;53.398;6.564;2022-11-11T09:40:26;24.00;;;12.48;;
53961;SDS011;39868;53.398;6.564;2022-11-11T09:49:55;20.85;;;12.52;;
53961;SDS011;39868;53.398;6.564;2022-11-11T09:52:52;18.73;;;12.30;;
53961;SDS011;39868;53.398;6.564;2022-11-11T09:55:43;22.30;;;11.48;;
53961;SDS011;39868;53.398;6.564;2022-11-11T09:58:50;20.20;;;11.43;;
53961;SDS011;39868;53.398;6.564;2022-11-11T10:01:43;19.38;;;11.63;;
53961;SDS011;39868;53.398;6.564;2022-11-11T10:07:25;19.27;;;10.93;;
53961;SDS011;39868;53.398;6.564;2022-11-11T10:22:21;17.90;;;11.20;;
53961;SDS011;39868;53.398;6.564;2022-11-11T10:25:21;17.23;;;10.35;;
53961;SDS011;39868;53.398;6.564;2022-11-11T10:28:17;21.48;;;11.75;;
53961;SDS011;39868;53.398;6.564;2022-11-11T10:31:08;20.10;;;11.25;;
53961;SDS011;39868;53.398;6.564;2022-11-11T10:34:10;17.85;;;10.75;;
53961;SDS011;39868;53.398;6.564;2022-11-11T10:36:58;21.10;;;10.60;;
53961;SDS011;39868;53.398;6.564;2022-11-11T10:39:58;19.67;;;10.82;;
53961;SDS011;39868;53.398;6.564;2022-11-11T10:42:45;18.38;;;11.10;;
53961;SDS011;39868;53.398;6.564;2022-11-11T10:45:44;18.58;;;10.48;;
53961;SDS011;39868;53.398;6.564;2022-11-11T10:48:52;20.95;;;11.00;;
53961;SDS011;39868;53.398;6.564;2022-11-11T10:52:12;22.50;;;10.88;;
53961;SDS011;39868;53.398;6.564;2022-11-11T10:55:13;18.23;;;10.35;;
53961;SDS011;39868;53.398;6.564;2022-11-11T10:58:09;18.90;;;10.57;;
53961;SDS011;39868;53.398;6.564;2022-11-11T11:01:15;20.05;;;11.02;;
53961;SDS011;39868;53.398;6.564;2022-11-11T11:04:16;21.15;;;10.63;;
53961;SDS011;39868;53.398;6.564;2022-11-11T11:07:25;19.45;;;10.38;;
53961;SDS011;39868;53.398;6.564;2022-11-11T11:10:31;24.30;;;10.82;;
53961;SDS011;39868;53.398;6.564;2022-11-11T11:16:40;15.75;;;10.10;;
53961;SDS011;39868;53.398;6.564;2022-11-11T11:19:32;17.83;;;10.68;;
53961;SDS011;39868;53.398;6.564;2022-11-11T11:22:17;15.65;;;9.77;;
53961;SDS011;39868;53.398;6.564;2022-11-11T11:25:10;15.38;;;10.05;;
53961;SDS011;39868;53.398;6.564;2022-11-11T11:31:04;22.17;;;10.27;;
53961;SDS011;39868;53.398;6.564;2022-11-11T11:33:55;21.60;;;10.30;;
53961;SDS011;39868;53.398;6.564;2022-11-11T11:36:41;15.85;;;10.38;;
53961;SDS011;39868;53.398;6.564;2022-11-11T11:39:30;15.30;;;9.50;;
53961;SDS011;39868;53.398;6.564;2022-11-11T11:42:33;16.80;;;10.10;;
53961;SDS011;39868;53.398;6.564;2022-11-11T11:45:28;18.98;;;9.50;;
53961;SDS011;39868;53.398;6.564;2022-11-11T11:57:29;18.95;;;9.98;;
53961;SDS011;39868;53.398;6.564;2022-11-11T12:03:31;17.13;;;9.65;;
53961;SDS011;39868;53.398;6.564;2022-11-11T12:07:00;15.70;;;9.23;;
53961;SDS011;39868;53.398;6.564;2022-11-11T12:09:55;15.18;;;9.15;;
53961;SDS011;39868;53.398;6.564;2022-11-11T12:13:04;11.80;;;8.48;;
53961;SDS011;39868;53.398;6.564;2022-11-11T12:16:35;19.40;;;9.85;;
53961;SDS011;39868;53.398;6.564;2022-11-11T12:22:24;16.35;;;9.02;;
53961;SDS011;39868;53.398;6.564;2022-11-11T12:25:50;17.25;;;9.23;;
53961;SDS011;39868;53.398;6.564;2022-11-11T12:35:27;16.52;;;9.45;;
53961;SDS011;39868;53.398;6.564;2022-11-11T12:44:17;13.65;;;8.55;;
53961;SDS011;39868;53.398;6.564;2022-11-11T12:50:01;14.55;;;9.10;;
53961;SDS011;39868;53.398;6.564;2022-11-11T12:52:53;14.85;;;9.10;;
53961;SDS011;39868;53.398;6.564;2022-11-11T12:59:37;15.55;;;9.20;;
53961;SDS011;39868;53.398;6.564;2022-11-11T13:06:04;16.88;;;8.68;;
53961;SDS011;39868;53.398;6.564;2022-11-11T13:11:50;17.63;;;9.65;;
53961;SDS011;39868;53.398;6.564;2022-11-11T13:15:02;16.30;;;9.85;;
53961;SDS011;39868;53.398;6.564;2022-11-11T13:17:57;17.83;;;10.07;;
53961;SDS011;39868;53.398;6.564;2022-11-11T13:20:48;16.33;;;9.38;;
53961;SDS011;39868;53.398;6.564;2022-11-11T13:26:25;16.63;;;9.40;;
53961;SDS011;39868;53.398;6.564;2022-11-11T13:33:23;17.05;;;9.63;;
53961;SDS011;39868;53.398;6.564;2022-11-11T13:36:15;16.70;;;9.40;;
53961;SDS011;39868;53.398;6.564;2022-11-11T13:42:09;18.65;;;9.55;;
53961;SDS011;39868;53.398;6.564;2022-11-11T13:45:03;15.40;;;8.90;;
53961;SDS011;39868;53.398;6.564;2022-11-11T13:47:51;17.45;;;9.52;;
53961;SDS011;39868;53.398;6.564;2022-11-11T13:50:39;18.75;;;10.27;;
53961;SDS011;39868;53.398;6.564;2022-11-11T13:53:28;18.35;;;9.75;;
53961;SDS011;39868;53.398;6.564;2022-11-11T13:56:33;14.82;;;9.13;;
53961;SDS011;39868;53.398;6.564;2022-11-11T13:59:40;15.88;;;9.38;;
53961;SDS011;39868;53.398;6.564;2022-11-11T14:02:32;18.95;;;9.55;;
53961;SDS011;39868;53.398;6.564;2022-11-11T14:05:20;17.38;;;10.48;;
53961;SDS011;39868;53.398;6.564;2022-11-11T14:08:07;19.40;;;10.80;;
53961;SDS011;39868;53.398;6.564;2022-11-11T14:10:55;18.95;;;10.20;;
53961;SDS011;39868;53.398;6.564;2022-11-11T14:13:44;19.63;;;10.15;;
53961;SDS011;39868;53.398;6.564;2022-11-11T14:22:41;19.35;;;10.40;;
53961;SDS011;39868;53.398;6.564;2022-11-11T14:25:22;16.33;;;10.43;;
53961;SDS011;39868;53.398;6.564;2022-11-11T14:28:23;17.75;;;10.85;;
53961;SDS011;39868;53.398;6.564;2022-11-11T14:37:12;17.60;;;9.50;;
53961;SDS011;39868;53.398;6.564;2022-11-11T14:40:10;20.48;;;10.57;;
53961;SDS011;39868;53.398;6.564;2022-11-11T14:42:58;19.48;;;10.23;;
53961;SDS011;39868;53.398;6.564;2022-11-11T14:46:06;17.30;;;9.93;;
53961;SDS011;39868;53.398;6.564;2022-11-11T14:48:59;17.83;;;9.98;;
53961;SDS011;39868;53.398;6.564;2022-11-11T14:51:50;17.45;;;10.90;;
53961;SDS011;39868;53.398;6.564;2022-11-11T14:57:47;19.48;;;10.27;;
53961;SDS011;39868;53.398;6.564;2022-11-11T15:03:47;17.70;;;9.68;;
53961;SDS011;39868;53.398;6.564;2022-11-11T15:06:42;18.98;;;9.80;;
53961;SDS011;39868;53.398;6.564;2022-11-11T15:12:56;18.63;;;9.70;;
53961;SDS011;39868;53.398;6.564;2022-11-11T15:19:19;14.65;;;9.48;;
53961;SDS011;39868;53.398;6.564;2022-11-11T15:31:54;15.63;;;9.23;;
53961;SDS011;39868;53.398;6.564;2022-11-11T15:34:45;16.27;;;9.10;;
53961;SDS011;39868;53.398;6.564;2022-11-11T15:37:43;16.45;;;10.35;;
53961;SDS011;39868;53.398;6.564;2022-11-11T15:43:35;15.82;;;9.55;;
53961;SDS011;39868;53.398;6.564;2022-11-11T15:46:27;16.70;;;9.35;;
53961;SDS011;39868;53.398;6.564;2022-11-11T15:52:25;17.75;;;9.32;;
53961;SDS011;39868;53.398;6.564;2022-11-11T15:55:22;18.42;;;10.23;;
53961;SDS011;39868;53.398;6.564;2022-11-11T16:00:59;17.55;;;9.23;;
53961;SDS011;39868;53.398;6.564;2022-11-11T16:03:49;16.17;;;10.30;;
53961;SDS011;39868;53.398;6.564;2022-11-11T16:06:36;19.65;;;10.32;;
53961;SDS011;39868;53.398;6.564;2022-11-11T16:09:23;16.55;;;9.68;;
53961;SDS011;39868;53.398;6.564;2022-11-11T16:12:15;19.52;;;10.48;;
53961;SDS011;39868;53.398;6.564;2022-11-11T16:15:16;21.13;;;10.25;;
53961;SDS011;39868;53.398;6.564;2022-11-11T16:18:58;18.63;;;10.10;;
53961;SDS011;39868;53.398;6.564;2022-11-11T16:21:40;17.23;;;9.90;;
53961;SDS011;39868;53.398;6.564;2022-11-11T16:24:40;16.52;;;9.90;;
53961;SDS011;39868;53.398;6.564;2022-11-11T16:27:30;19.13;;;10.75;;
53961;SDS011;39868;53.398;6.564;2022-11-11T16:30:36;17.38;;;10.43;;
53961;SDS011;39868;53.398;6.564;2022-11-11T16:36:11;15.75;;;9.80;;
53961;SDS011;39868;53.398;6.564;2022-11-11T16:39:11;17.40;;;10.02;;
53961;SDS011;39868;53.398;6.564;2022-11-11T16:45:17;16.70;;;10.20;;
53961;SDS011;39868;53.398;6.564;2022-11-11T16:48:06;20.13;;;10.30;;
53961;SDS011;39868;53.398;6.564;2022-11-11T16:54:10;15.67;;;10.03;;
53961;SDS011;39868;53.398;6.564;2022-11-11T16:57:05;18.52;;;10.05;;
53961;SDS011;39868;53.398;6.564;2022-11-11T16:59:52;19.55;;;11.02;;
53961;SDS011;39868;53.398;6.564;2022-11-11T17:02:44;21.23;;;10.05;;
53961;SDS011;39868;53.398;6.564;2022-11-11T17:06:13;20.13;;;10.85;;
53961;SDS011;39868;53.398;6.564;2022-11-11T17:08:52;15.50;;;9.07;;
53961;SDS011;39868;53.398;6.564;2022-11-11T17:14:25;19.85;;;10.27;;
53961;SDS011;39868;53.398;6.564;2022-11-11T17:17:12;17.10;;;9.75;;
53961;SDS011;39868;53.398;6.564;2022-11-11T17:19:59;18.48;;;9.82;;
53961;SDS011;39868;53.398;6.564;2022-11-11T17:25:35;19.55;;;10.55;;
53961;SDS011;39868;53.398;6.564;2022-11-11T17:28:21;19.50;;;11.07;;
53961;SDS011;39868;53.398;6.564;2022-11-11T17:31:08;20.25;;;10.60;;
53961;SDS011;39868;53.398;6.564;2022-11-11T17:33:56;18.60;;;10.77;;
53961;SDS011;39868;53.398;6.564;2022-11-11T17:36:49;23.70;;;13.38;;
53961;SDS011;39868;53.398;6.564;2022-11-11T17:39:35;24.73;;;14.23;;
53961;SDS011;39868;53.398;6.564;2022-11-11T17:42:23;23.00;;;11.48;;
53961;SDS011;39868;53.398;6.564;2022-11-11T17:45:09;41.83;;;19.60;;
53961;SDS011;39868;53.398;6.564;2022-11-11T17:47:55;22.80;;;13.65;;
53961;SDS011;39868;53.398;6.564;2022-11-11T17:50:41;23.05;;;12.30;;
53961;SDS011;39868;53.398;6.564;2022-11-11T17:53:31;20.95;;;12.75;;
53961;SDS011;39868;53.398;6.564;2022-11-11T17:56:20;24.27;;;12.60;;
53961;SDS011;39868;53.398;6.564;2022-11-11T17:59:07;22.42;;;12.60;;
53961;SDS011;39868;53.398;6.564;2022-11-11T18:01:53;20.38;;;11.77;;
53961;SDS011;39868;53.398;6.564;2022-11-11T18:04:39;21.55;;;12.48;;
53961;SDS011;39868;53.398;6.564;2022-11-11T18:07:25;24.77;;;14.07;;
53961;SDS011;39868;53.398;6.564;2022-11-11T18:10:12;22.20;;;13.30;;
53961;SDS011;39868;53.398;6.564;2022-11-11T18:12:59;22.67;;;13.23;;
53961;SDS011;39868;53.398;6.564;2022-11-11T18:15:45;23.50;;;12.40;;
53961;SDS011;39868;53.398;6.564;2022-11-11T18:18:31;22.95;;;11.88;;
53961;SDS011;39868;53.398;6.564;2022-11-11T18:21:17;21.08;;;11.57;;
53961;SDS011;39868;53.398;6.564;2022-11-11T18:24:05;18.38;;;10.32;;
53961;SDS011;39868;53.398;6.564;2022-11-11T18:26:53;22.15;;;11.68;;
53961;SDS011;39868;53.398;6.564;2022-11-11T18:29:39;20.65;;;11.32;;
53961;SDS011;39868;53.398;6.564;2022-11-11T18:32:27;22.50;;;12.10;;
53961;SDS011;39868;53.398;6.564;2022-11-11T18:35:13;30.60;;;15.70;;
53961;SDS011;39868;53.398;6.564;2022-11-11T18:38:01;22.77;;;14.02;;
53961;SDS011;39868;53.398;6.564;2022-11-11T18:40:47;22.80;;;13.57;;
53961;SDS011;39868;53.398;6.564;2022-11-11T18:43:37;23.10;;;12.20;;
53961;SDS011;39868;53.398;6.564;2022-11-11T18:46:28;23.92;;;11.90;;
53961;SDS011;39868;53.398;6.564;2022-11-11T18:49:15;21.33;;;12.32;;
53961;SDS011;39868;53.398;6.564;2022-11-11T18:52:01;22.80;;;12.38;;
53961;SDS011;39868;53.398;6.564;2022-11-11T18:54:47;20.10;;;11.15;;
53961;SDS011;39868;53.398;6.564;2022-11-11T18:57:33;23.45;;;11.38;;
53961;SDS011;39868;53.398;6.564;2022-11-11T19:00:19;21.40;;;11.00;;
53961;SDS011;39868;53.398;6.564;2022-11-11T19:03:06;21.02;;;10.82;;
53961;SDS011;39868;53.398;6.564;2022-11-11T19:05:52;17.65;;;10.75;;
53961;SDS011;39868;53.398;6.564;2022-11-11T19:08:38;20.45;;;11.57;;
53961;SDS011;39868;53.398;6.564;2022-11-11T19:11:24;22.27;;;12.05;;
53961;SDS011;39868;53.398;6.564;2022-11-11T19:14:12;21.45;;;12.40;;
53961;SDS011;39868;53.398;6.564;2022-11-11T19:17:06;22.98;;;11.57;;